Time,TemperatureF,DewpointF,PressureIn,WindDirection,WindDirectionDegrees,WindSpeedMPH,WindSpeedGustMPH,Humidity,HourlyPrecipIn,Conditions,Clouds,dailyrainin,SoftwareType,DateUTC
2013-06-19 00:01:00,60.7,58.1,29.93,North,-999,0.0,1.0,91,0.00,,,-99.99,WeatherLink 5.7,2013-06-19 04:01:00,
2013-06-19 00:11:00,60.5,57.9,29.93,North,-999,0.0,0.0,91,0.00,,,-99.99,WeatherLink 5.7,2013-06-19 04:11:00,
2013-06-19 00:21:00,60.4,57.8,29.93,South,180,0.0,1.0,91,0.00,,,-99.99,WeatherLink 5.7,2013-06-19 04:21:00,
2013-06-19 00:31:00,60.4,58.1,29.92,North,-999,0.0,0.0,92,0.00,,,-99.99,WeatherLink 5.7,2013-06-19 04:31:00,
2013-06-19 00:41:00,60.3,58.0,29.92,South,180,0.0,1.0,92,0.00,,,-99.99,WeatherLink 5.7,2013-06-19 04:41:00,
2013-06-19 00:51:00,60.1,57.5,29.92,South,180,0.0,1.0,91,0.00,,,-99.99,WeatherLink 5.7,2013-06-19 04:51:00,
2013-06-19 01:01:00,60.1,57.5,29.92,North,-999,0.0,0.0,91,0.00,,,-99.99,WeatherLink 5.7,2013-06-19 05:01:00,
2013-06-19 01:11:00,60.0,57.7,29.92,South,180,0.0,1.0,92,0.00,,,-99.99,WeatherLink 5.7,2013-06-19 05:11:00,
2013-06-19 01:21:00,59.8,57.5,29.93,South,180,0.0,1.0,92,0.00,,,-99.99,WeatherLink 5.7,2013-06-19 05:21:00,
2013-06-19 01:31:00,59.7,57.1,29.93,South,180,0.0,1.0,91,0.00,,,-99.99,WeatherLink 5.7,2013-06-19 05:31:00,
2013-06-19 01:41:00,59.5,56.9,29.93,South,180,0.0,1.0,91,0.00,,,-99.99,WeatherLink 5.7,2013-06-19 05:41:00,
2013-06-19 01:51:00,59.2,56.6,29.92,South,180,0.0,1.0,91,0.00,,,-99.99,WeatherLink 5.7,2013-06-19 05:51:00,
2013-06-19 02:01:00,59.1,56.5,29.92,North,-999,0.0,0.0,91,0.00,,,-99.99,WeatherLink 5.7,2013-06-19 06:01:00,
2013-06-19 02:11:00,59.1,56.8,29.93,South,180,0.0,2.0,92,0.00,,,-99.99,WeatherLink 5.7,2013-06-19 06:11:00,
2013-06-19 02:21:00,59.0,56.4,29.93,South,180,0.0,1.0,91,0.00,,,-99.99,WeatherLink 5.7,2013-06-19 06:21:00,
2013-06-19 02:31:00,58.6,56.0,29.93,South,180,0.0,1.0,91,0.00,,,-99.99,WeatherLink 5.7,2013-06-19 06:31:00,
2013-06-19 02:41:00,58.4,55.8,29.94,South,180,0.0,1.0,91,0.00,,,-99.99,WeatherLink 5.7,2013-06-19 06:41:00,
2013-06-19 02:51:00,58.4,55.8,29.94,South,180,0.0,1.0,91,0.00,,,-99.99,WeatherLink 5.7,2013-06-19 06:51:00,
2013-06-19 03:01:00,58.3,55.7,29.94,South,180,0.0,1.0,91,0.00,,,-99.99,WeatherLink 5.7,2013-06-19 07:01:00,
2013-06-19 03:11:00,58.1,55.5,29.94,South,180,0.0,1.0,91,0.00,,,-99.99,WeatherLink 5.7,2013-06-19 07:11:00,
2013-06-19 03:21:00,57.9,55.3,29.94,South,180,0.0,1.0,91,0.00,,,-99.99,WeatherLink 5.7,2013-06-19 07:21:00,
2013-06-19 03:31:00,57.7,55.1,29.94,South,180,0.0,1.0,91,0.00,,,-99.99,WeatherLink 5.7,2013-06-19 07:31:00,
2013-06-19 03:41:00,57.5,54.9,29.95,South,180,0.0,2.0,91,0.00,,,-99.99,WeatherLink 5.7,2013-06-19 07:41:00,
2013-06-19 03:51:00,57.3,54.7,29.95,South,180,1.0,2.0,91,0.00,,,-99.99,WeatherLink 5.7,2013-06-19 07:51:00,
2013-06-19 04:01:00,57.1,54.5,29.94,South,180,1.0,2.0,91,0.00,,,-99.99,WeatherLink 5.7,2013-06-19 08:01:00,
2013-06-19 04:11:00,57.0,54.1,29.96,SSW,202,1.0,2.0,90,0.00,,,-99.99,WeatherLink 5.7,2013-06-19 08:11:00,
2013-06-19 04:21:00,56.9,54.0,29.95,SSW,202,1.0,3.0,90,0.00,,,-99.99,WeatherLink 5.7,2013-06-19 08:21:00,
2013-06-19 04:31:00,56.7,53.8,29.95,WNW,292,0.0,2.0,90,0.00,,,-99.99,WeatherLink 5.7,2013-06-19 08:31:00,
2013-06-19 04:41:00,56.6,53.7,29.94,West,270,0.0,1.0,90,0.00,,,-99.99,WeatherLink 5.7,2013-06-19 08:41:00,
2013-06-19 04:51:00,56.5,53.3,29.95,WSW,247,0.0,2.0,89,0.00,,,-99.99,WeatherLink 5.7,2013-06-19 08:51:00,
2013-06-19 05:01:00,56.4,53.2,29.95,North,-999,0.0,1.0,89,0.00,,,-99.99,WeatherLink 5.7,2013-06-19 09:01:00,
2013-06-19 05:11:00,56.4,53.2,29.95,North,-999,0.0,1.0,89,0.00,,,-99.99,WeatherLink 5.7,2013-06-19 09:11:00,
2013-06-19 05:21:00,56.3,53.1,29.96,NE,45,0.0,4.0,89,0.00,,,-99.99,WeatherLink 5.7,2013-06-19 09:21:00,
2013-06-19 05:31:00,56.3,53.1,29.95,SW,225,0.0,3.0,89,0.00,,,-99.99,WeatherLink 5.7,2013-06-19 09:31:00,
2013-06-19 05:41:00,56.3,52.8,29.96,SW,225,0.0,4.0,88,0.00,,,-99.99,WeatherLink 5.7,2013-06-19 09:41:00,
2013-06-19 05:51:00,56.4,52.9,29.97,WSW,247,0.0,3.0,88,0.00,,,-99.99,WeatherLink 5.7,2013-06-19 09:51:00,
2013-06-19 06:01:00,56.3,52.5,29.97,WSW,247,0.0,1.0,87,0.00,,,-99.99,WeatherLink 5.7,2013-06-19 10:01:00,
2013-06-19 06:11:00,56.3,52.5,29.97,WSW,247,0.0,1.0,87,0.00,,,-99.99,WeatherLink 5.7,2013-06-19 10:11:00,
2013-06-19 06:21:00,56.3,52.8,29.98,WSW,247,0.0,1.0,88,0.00,,,-99.99,WeatherLink 5.7,2013-06-19 10:21:00,
2013-06-19 06:31:00,56.3,52.5,29.97,North,-999,0.0,1.0,87,0.00,,,-99.99,WeatherLink 5.7,2013-06-19 10:31:00,
2013-06-19 06:41:00,56.2,52.4,29.98,WSW,247,0.0,2.0,87,0.00,,,-99.99,WeatherLink 5.7,2013-06-19 10:41:00,
2013-06-19 06:51:00,56.2,52.1,29.99,WSW,247,0.0,2.0,86,0.00,,,-99.99,WeatherLink 5.7,2013-06-19 10:51:00,
2013-06-19 07:01:00,56.2,51.7,29.99,WSW,247,0.0,2.0,85,0.00,,,-99.99,WeatherLink 5.7,2013-06-19 11:01:00,
2013-06-19 07:11:00,56.3,51.8,29.99,SW,225,0.0,3.0,85,0.00,,,-99.99,WeatherLink 5.7,2013-06-19 11:11:00,
2013-06-19 07:21:00,56.4,51.9,30.00,SW,225,0.0,2.0,85,0.00,,,-99.99,WeatherLink 5.7,2013-06-19 11:21:00,
2013-06-19 07:31:00,56.6,52.5,30.01,SSW,202,0.0,3.0,86,0.00,,,-99.99,WeatherLink 5.7,2013-06-19 11:31:00,
2013-06-19 07:41:00,57.0,52.5,30.02,WSW,247,0.0,1.0,85,0.00,,,-99.99,WeatherLink 5.7,2013-06-19 11:41:00,
2013-06-19 07:51:00,57.2,52.4,30.02,WSW,247,0.0,1.0,84,0.00,,,-99.99,WeatherLink 5.7,2013-06-19 11:51:00,
2013-06-19 08:01:00,57.5,52.4,30.03,NW,315,0.0,3.0,83,0.00,,,-99.99,WeatherLink 5.7,2013-06-19 12:01:00,
2013-06-19 08:11:00,57.7,51.6,30.03,WSW,247,1.0,4.0,80,0.00,,,-99.99,WeatherLink 5.7,2013-06-19 12:11:00,
2013-06-19 08:21:00,57.8,51.7,30.03,NW,315,0.0,3.0,80,0.00,,,-99.99,WeatherLink 5.7,2013-06-19 12:21:00,
2013-06-19 08:31:00,57.9,50.7,30.04,WSW,247,0.0,3.0,77,0.00,,,-99.99,WeatherLink 5.7,2013-06-19 12:31:00,
2013-06-19 08:41:00,58.2,51.7,30.05,SW,225,0.0,1.0,79,0.00,,,-99.99,WeatherLink 5.7,2013-06-19 12:41:00,
2013-06-19 08:51:00,58.7,50.8,30.05,SW,225,0.0,2.0,75,0.00,,,-99.99,WeatherLink 5.7,2013-06-19 12:51:00,
2013-06-19 09:01:00,59.2,51.6,30.05,SW,225,0.0,2.0,76,0.00,,,-99.99,WeatherLink 5.7,2013-06-19 13:01:00,
2013-06-19 09:11:00,59.7,51.4,30.06,SSE,157,0.0,2.0,74,0.00,,,-99.99,WeatherLink 5.7,2013-06-19 13:11:00,
2013-06-19 09:21:00,60.3,51.2,30.05,SSE,157,0.0,2.0,72,0.00,,,-99.99,WeatherLink 5.7,2013-06-19 13:21:00,
2013-06-19 09:31:00,60.8,51.3,30.06,SSW,202,0.0,3.0,71,0.00,,,-99.99,WeatherLink 5.7,2013-06-19 13:31:00,
2013-06-19 09:41:00,61.3,52.2,30.06,NW,315,0.0,3.0,72,0.00,,,-99.99,WeatherLink 5.7,2013-06-19 13:41:00,
2013-06-19 09:51:00,61.7,52.2,30.06,West,270,0.0,4.0,71,0.00,,,-99.99,WeatherLink 5.7,2013-06-19 13:51:00,
2013-06-19 10:01:00,62.0,51.7,30.06,NNE,22,0.0,3.0,69,0.00,,,-99.99,WeatherLink 5.7,2013-06-19 14:01:00,
2013-06-19 10:11:00,62.6,52.7,30.07,NW,315,0.0,2.0,70,0.00,,,-99.99,WeatherLink 5.7,2013-06-19 14:11:00,
2013-06-19 10:21:00,63.1,52.8,30.07,NNW,337,1.0,3.0,69,0.00,,,-99.99,WeatherLink 5.7,2013-06-19 14:21:00,
2013-06-19 10:31:00,63.4,53.0,30.08,NNW,337,0.0,2.0,69,0.00,,,-99.99,WeatherLink 5.7,2013-06-19 14:31:00,
2013-06-19 10:41:00,63.9,52.7,30.08,WSW,247,1.0,3.0,67,0.00,,,-99.99,WeatherLink 5.7,2013-06-19 14:41:00,
2013-06-19 10:51:00,64.3,52.7,30.08,WSW,247,0.0,2.0,66,0.00,,,-99.99,WeatherLink 5.7,2013-06-19 14:51:00,
2013-06-19 11:01:00,64.5,52.5,30.08,West,270,1.0,3.0,65,0.00,,,-99.99,WeatherLink 5.7,2013-06-19 15:01:00,
2013-06-19 11:11:00,64.9,51.6,30.08,WNW,292,1.0,3.0,62,0.00,,,-99.99,WeatherLink 5.7,2013-06-19 15:11:00,
2013-06-19 11:21:00,65.4,52.9,30.09,North,0,0.0,1.0,64,0.00,,,-99.99,WeatherLink 5.7,2013-06-19 15:21:00,
2013-06-19 11:31:00,65.7,51.4,30.09,WNW,292,0.0,3.0,60,0.00,,,-99.99,WeatherLink 5.7,2013-06-19 15:31:00,
2013-06-19 11:41:00,66.1,51.4,30.08,WNW,292,1.0,4.0,59,0.00,,,-99.99,WeatherLink 5.7,2013-06-19 15:41:00,
2013-06-19 11:51:00,66.4,52.1,30.08,SE,135,0.0,2.0,60,0.00,,,-99.99,WeatherLink 5.7,2013-06-19 15:51:00,
2013-06-19 12:01:00,66.9,53.0,30.08,SSE,157,0.0,2.0,61,0.00,,,-99.99,WeatherLink 5.7,2013-06-19 16:01:00,
2013-06-19 12:11:00,67.3,52.5,30.08,WNW,292,1.0,3.0,59,0.00,,,-99.99,WeatherLink 5.7,2013-06-19 16:11:00,
2013-06-19 12:21:00,67.3,50.1,30.08,WNW,292,1.0,4.0,54,0.00,,,-99.99,WeatherLink 5.7,2013-06-19 16:21:00,
2013-06-19 12:31:00,67.7,51.9,30.08,SE,135,0.0,3.0,57,0.00,,,-99.99,WeatherLink 5.7,2013-06-19 16:31:00,
2013-06-19 12:41:00,68.3,51.0,30.08,SE,135,0.0,4.0,54,0.00,,,-99.99,WeatherLink 5.7,2013-06-19 16:41:00,
2013-06-19 12:51:00,68.4,50.6,30.08,SSE,157,1.0,3.0,53,0.00,,,-99.99,WeatherLink 5.7,2013-06-19 16:51:00,
2013-06-19 13:01:00,68.6,52.3,30.08,West,270,1.0,4.0,56,0.00,,,-99.99,WeatherLink 5.7,2013-06-19 17:01:00,
2013-06-19 13:11:00,68.7,51.9,30.08,NNE,22,0.0,2.0,55,0.00,,,-99.99,WeatherLink 5.7,2013-06-19 17:11:00,
2013-06-19 13:21:00,68.4,51.6,30.09,WNW,292,0.0,3.0,55,0.00,,,-99.99,WeatherLink 5.7,2013-06-19 17:21:00,
2013-06-19 13:31:00,68.9,51.6,30.08,WNW,292,0.0,2.0,54,0.00,,,-99.99,WeatherLink 5.7,2013-06-19 17:31:00,
2013-06-19 13:41:00,69.5,51.1,30.09,East,90,0.0,4.0,52,0.00,,,-99.99,WeatherLink 5.7,2013-06-19 17:41:00,
2013-06-19 13:51:00,70.0,53.1,30.08,East,90,0.0,2.0,55,0.00,,,-99.99,WeatherLink 5.7,2013-06-19 17:51:00,
2013-06-19 14:01:00,70.4,53.5,30.08,East,90,0.0,2.0,55,0.00,,,-99.99,WeatherLink 5.7,2013-06-19 18:01:00,
2013-06-19 14:11:00,69.8,52.4,30.09,West,270,0.0,2.0,54,0.00,,,-99.99,WeatherLink 5.7,2013-06-19 18:11:00,
2013-06-19 14:21:00,70.0,53.1,30.08,NNW,337,1.0,3.0,55,0.00,,,-99.99,WeatherLink 5.7,2013-06-19 18:21:00,
2013-06-19 14:31:00,69.9,54.0,30.09,NW,315,0.0,1.0,57,0.00,,,-99.99,WeatherLink 5.7,2013-06-19 18:31:00,
2013-06-19 14:41:00,69.6,54.6,30.08,North,-999,0.0,1.0,59,0.00,,,-99.99,WeatherLink 5.7,2013-06-19 18:41:00,
2013-06-19 14:51:00,70.8,55.3,30.09,NW,315,0.0,3.0,58,0.00,,,-99.99,WeatherLink 5.7,2013-06-19 18:51:00,
2013-06-19 15:01:00,71.7,55.7,30.08,NW,315,0.0,1.0,57,0.00,,,-99.99,WeatherLink 5.7,2013-06-19 19:01:00,
2013-06-19 15:11:00,71.9,52.8,30.09,NW,315,0.0,2.0,51,0.00,,,-99.99,WeatherLink 5.7,2013-06-19 19:11:00,
2013-06-19 15:21:00,71.1,54.1,30.09,NW,315,0.0,1.0,55,0.00,,,-99.99,WeatherLink 5.7,2013-06-19 19:21:00,
2013-06-19 15:31:00,70.4,54.0,30.10,NW,315,0.0,2.0,56,0.00,,,-99.99,WeatherLink 5.7,2013-06-19 19:31:00,
2013-06-19 15:41:00,69.4,53.5,30.09,NW,315,0.0,1.0,57,0.00,,,-99.99,WeatherLink 5.7,2013-06-19 19:41:00,
2013-06-19 15:51:00,69.9,54.4,30.09,NW,315,0.0,1.0,58,0.00,,,-99.99,WeatherLink 5.7,2013-06-19 19:51:00,
2013-06-19 16:01:00,70.8,53.3,30.09,NW,315,0.0,1.0,54,0.00,,,-99.99,WeatherLink 5.7,2013-06-19 20:01:00,
2013-06-19 16:11:00,71.0,53.5,30.09,NW,315,1.0,2.0,54,0.00,,,-99.99,WeatherLink 5.7,2013-06-19 20:11:00,
2013-06-19 16:21:00,70.8,51.2,30.09,West,270,0.0,2.0,50,0.00,,,-99.99,WeatherLink 5.7,2013-06-19 20:21:00,
2013-06-19 16:31:00,71.0,52.5,30.09,West,270,0.0,1.0,52,0.00,,,-99.99,WeatherLink 5.7,2013-06-19 20:31:00,
2013-06-19 16:41:00,71.1,55.6,30.09,West,270,0.0,1.0,58,0.00,,,-99.99,WeatherLink 5.7,2013-06-19 20:41:00,
2013-06-19 16:51:00,70.9,54.9,30.09,West,270,0.0,2.0,57,0.00,,,-99.99,WeatherLink 5.7,2013-06-19 20:51:00,
2013-06-19 17:01:00,70.8,54.3,30.08,North,-999,0.0,0.0,56,0.00,,,-99.99,WeatherLink 5.7,2013-06-19 21:01:00,
2013-06-19 17:11:00,70.6,53.6,30.08,West,270,0.0,1.0,55,0.00,,,-99.99,WeatherLink 5.7,2013-06-19 21:11:00,
2013-06-19 17:21:00,70.3,53.9,30.08,West,270,0.0,1.0,56,0.00,,,-99.99,WeatherLink 5.7,2013-06-19 21:21:00,
2013-06-19 17:30:00,70.2,55.7,30.09,West,270,0.0,2.0,60,0.00,,,-99.99,WeatherLink 5.7,2013-06-19 21:30:00,
2013-06-19 17:41:00,70.0,55.5,30.08,West,270,0.0,1.0,60,0.00,,,-99.99,WeatherLink 5.7,2013-06-19 21:41:00,
2013-06-19 17:51:00,69.8,54.8,30.08,West,270,0.0,2.0,59,0.00,,,-99.99,WeatherLink 5.7,2013-06-19 21:51:00,
2013-06-19 18:01:00,69.7,53.8,30.08,North,-999,0.0,0.0,57,0.00,,,-99.99,WeatherLink 5.7,2013-06-19 22:01:00,
2013-06-19 18:11:00,69.5,53.6,30.08,North,-999,0.0,0.0,57,0.00,,,-99.99,WeatherLink 5.7,2013-06-19 22:11:00,
2013-06-19 18:21:00,69.2,50.8,30.08,North,-999,0.0,0.0,52,0.00,,,-99.99,WeatherLink 5.7,2013-06-19 22:21:00,
2013-06-19 18:31:00,69.0,51.2,30.09,North,-999,0.0,0.0,53,0.00,,,-99.99,WeatherLink 5.7,2013-06-19 22:31:00,
2013-06-19 18:41:00,68.8,51.5,30.09,North,-999,0.0,0.0,54,0.00,,,-99.99,WeatherLink 5.7,2013-06-19 22:41:00,
2013-06-19 18:50:00,68.6,51.8,30.09,North,-999,0.0,0.0,55,0.00,,,-99.99,WeatherLink 5.7,2013-06-19 22:50:00,
2013-06-19 19:01:00,68.4,51.6,30.09,North,-999,0.0,0.0,55,0.00,,,-99.99,WeatherLink 5.7,2013-06-19 23:01:00,
2013-06-19 19:11:00,68.2,51.4,30.10,North,-999,0.0,0.0,55,0.00,,,-99.99,WeatherLink 5.7,2013-06-19 23:11:00,
2013-06-19 19:21:00,68.0,51.2,30.10,North,-999,0.0,0.0,55,0.00,,,-99.99,WeatherLink 5.7,2013-06-19 23:21:00,
2013-06-19 19:31:00,67.8,51.5,30.10,North,-999,0.0,0.0,56,0.00,,,-99.99,WeatherLink 5.7,2013-06-19 23:31:00,
2013-06-19 19:40:00,67.6,51.3,30.11,North,-999,0.0,0.0,56,0.00,,,-99.99,WeatherLink 5.7,2013-06-19 23:40:00,
2013-06-19 19:51:00,67.3,52.5,30.11,North,-999,0.0,0.0,59,0.00,,,-99.99,WeatherLink 5.7,2013-06-19 23:51:00,
2013-06-19 20:00:00,66.8,53.8,30.11,North,-999,0.0,0.0,63,0.00,,,-99.99,WeatherLink 5.7,2013-06-20 00:00:00,
2013-06-19 20:11:00,66.0,54.3,30.11,North,-999,0.0,0.0,66,0.00,,,-99.99,WeatherLink 5.7,2013-06-20 00:11:00,
2013-06-19 20:21:00,65.3,54.5,30.11,North,-999,0.0,0.0,68,0.00,,,-99.99,WeatherLink 5.7,2013-06-20 00:21:00,
2013-06-19 20:31:00,64.6,55.0,30.12,North,-999,0.0,0.0,71,0.00,,,-99.99,WeatherLink 5.7,2013-06-20 00:31:00,
2013-06-19 20:41:00,64.1,54.5,30.12,North,-999,0.0,0.0,71,0.00,,,-99.99,WeatherLink 5.7,2013-06-20 00:41:00,
2013-06-19 20:50:00,63.7,53.3,30.12,North,-999,0.0,0.0,69,0.00,,,-99.99,WeatherLink 5.7,2013-06-20 00:50:00,
2013-06-19 21:01:00,63.5,52.7,30.12,North,-999,0.0,0.0,68,0.00,,,-99.99,WeatherLink 5.7,2013-06-20 01:01:00,
2013-06-19 21:11:00,63.2,54.4,30.13,North,-999,0.0,0.0,73,0.00,,,-99.99,WeatherLink 5.7,2013-06-20 01:11:00,
2013-06-19 21:21:00,62.3,54.6,30.13,North,-999,0.0,0.0,76,0.00,,,-99.99,WeatherLink 5.7,2013-06-20 01:21:00,
2013-06-19 21:31:00,61.8,54.5,30.13,North,-999,0.0,0.0,77,0.00,,,-99.99,WeatherLink 5.7,2013-06-20 01:31:00,
2013-06-19 21:41:00,61.3,54.4,30.14,North,-999,0.0,0.0,78,0.00,,,-99.99,WeatherLink 5.7,2013-06-20 01:41:00,
2013-06-19 21:50:00,61.2,54.3,30.15,North,-999,0.0,0.0,78,0.00,,,-99.99,WeatherLink 5.7,2013-06-20 01:50:00,
2013-06-19 22:00:00,61.2,54.6,30.15,North,-999,0.0,0.0,79,0.00,,,-99.99,WeatherLink 5.7,2013-06-20 02:00:00,
2013-06-19 22:10:00,60.9,54.3,30.15,North,-999,0.0,0.0,79,0.00,,,-99.99,WeatherLink 5.7,2013-06-20 02:10:00,
2013-06-19 22:20:00,60.4,53.9,30.16,North,-999,0.0,0.0,79,0.00,,,-99.99,WeatherLink 5.7,2013-06-20 02:20:00,
2013-06-19 22:31:00,60.5,52.9,30.17,North,-999,0.0,0.0,76,0.00,,,-99.99,WeatherLink 5.7,2013-06-20 02:31:00,
2013-06-19 22:41:00,60.4,54.2,30.16,North,-999,0.0,0.0,80,0.00,,,-99.99,WeatherLink 5.7,2013-06-20 02:41:00,
2013-06-19 22:51:00,59.7,53.9,30.17,North,-999,0.0,0.0,81,0.00,,,-99.99,WeatherLink 5.7,2013-06-20 02:51:00,
2013-06-19 23:01:00,59.4,53.6,30.17,North,-999,0.0,0.0,81,0.00,,,-99.99,WeatherLink 5.7,2013-06-20 03:01:00,
2013-06-19 23:11:00,59.3,53.5,30.17,North,-999,0.0,0.0,81,0.00,,,-99.99,WeatherLink 5.7,2013-06-20 03:11:00,
2013-06-19 23:20:00,59.3,53.8,30.17,North,-999,0.0,0.0,82,0.00,,,-99.99,WeatherLink 5.7,2013-06-20 03:20:00,
2013-06-19 23:30:00,59.5,53.7,30.17,North,-999,0.0,0.0,81,0.00,,,-99.99,WeatherLink 5.7,2013-06-20 03:30:00,
2013-06-19 23:40:00,59.0,53.5,30.18,North,-999,0.0,1.0,82,0.00,,,-99.99,WeatherLink 5.7,2013-06-20 03:40:00,
2013-06-19 23:51:00,58.0,53.5,30.19,West,270,0.0,1.0,85,0.00,,,-99.99,WeatherLink 5.7,2013-06-20 03:51:00,